Bf Esperanza — V2BR8 — position and weather

sailwx.info

Track history (hours):
 
Tides and Currents Weather Stations Pressure Air Temp Water Temp Dewpoint Dewpoint Depression Visibility Wind Speed Wind Dir Waves Ship Positions

Bf Esperanza

Last reported at 2014-Aug-19 23:33 UTC. Time now 2014-Aug-22 17:42 UTC.
Position N 37°17' W 000°57'.

Length 135 m; draft 8.1 m.

Type: Cargo ship. MMSI: 304907000.

Date/timePositionNaut miles runAvg speedWind from/ knotsBaromVisibWave heightAir tempDewpointWater temp
2014-Aug-19 23:33N 37°17' W 000°57'1515.2
2014-Aug-19 22:32N 37°27' W 000°43'1514.7
2014-Aug-19 21:33N 37°38' W 000°30'1515.0
2014-Aug-19 20:31N 37°51' W 000°19'1414.3
2014-Aug-19 19:33N 38°03' W 000°10'78 3.3
2014-Aug-18 20:08N 39°14' E 000°28'1 0.5
2014-Aug-18 18:12N 39°13' E 000°28'33 3.4
2014-Aug-18 08:26N 39°22' W 000°13'7 7.2
2014-Aug-18 07:31N 39°27' W 000°19'0 0.0
2014-Aug-18 06:31N 39°27' W 000°19'0 0.0
2014-Aug-18 05:15N 39°27' W 000°19'0 0.0
2014-Aug-18 04:33N 39°27' W 000°19'0 0.0
2014-Aug-18 03:21N 39°27' W 000°19'0 0.0
2014-Aug-18 02:32N 39°27' W 000°19'0 0.0
2014-Aug-18 01:32N 39°27' W 000°19'0 0.0
2014-Aug-18 00:19N 39°27' W 000°19'58 6.6
2014-Aug-17 15:26N 40°05' E 000°39'1313.5
2014-Aug-17 14:30N 40°13' E 000°51'1313.2
2014-Aug-17 13:31N 40°22' E 001°04'1313.7
2014-Aug-17 12:33N 40°31' E 001°17'1414.5
2014-Aug-17 11:33N 40°40' E 001°31'1714.5
2014-Aug-17 10:25N 40°51' E 001°47'1514.4
2014-Aug-17 09:22N 41°01' E 002°03'1214.3
2014-Aug-17 08:33N 41°08' E 002°15'1414.3
2014-Aug-17 07:33N 41°17' E 002°29'1413.8
2014-Aug-17 06:33N 41°26' E 002°44'1413.6
2014-Aug-17 05:33N 41°35' E 002°58'1413.7
2014-Aug-17 04:33N 41°44' E 003°12'1413.9
2014-Aug-17 03:33N 41°55' E 003°23'1514.7
2014-Aug-17 02:33N 42°09' E 003°26'1414.0
2014-Aug-17 01:33N 42°23' E 003°29'1414.2
2014-Aug-17 00:33N 42°36' E 003°37'1414.3
2014-Aug-16 23:33N 42°49' E 003°44'1313.5
2014-Aug-16 22:34N 42°56' E 004°00'1413.8
2014-Aug-16 21:33N 42°60' E 004°18'1413.6
2014-Aug-16 20:33N 43°04' E 004°36'1414.2
2014-Aug-16 19:33N 43°08' E 004°55'1212.1
2014-Aug-16 18:33N 43°14' E 005°09'11 8.6
2014-Aug-16 17:18N 43°21' E 005°20'0 0.0
2014-Aug-16 11:22N 43°21' E 005°20'0 0.0
2014-Aug-16 09:30N 43°21' E 005°20'0 0.0
2014-Aug-16 06:23N 43°21' E 005°20'0 0.0
2014-Aug-16 05:04N 43°21' E 005°20'0 0.0
2014-Aug-15 23:04N 43°21' E 005°20'0 0.0
2014-Aug-15 22:13N 43°21' E 005°20'0 0.0
2014-Aug-15 20:03N 43°21' E 005°20'0 0.0
2014-Aug-15 19:13N 43°21' E 005°20'0 0.0
2014-Aug-15 17:32N 43°21' E 005°20'0 0.0
2014-Aug-15 12:30N 43°21' E 005°20'0 0.0
2014-Aug-15 09:30N 43°21' E 005°20'8 8.8
2014-Aug-15 08:33N 43°16' E 005°11'1313.5
2014-Aug-15 07:34N 43°04' E 005°02'1414.3
2014-Aug-15 06:33N 42°55' E 004°47'1312.9
2014-Aug-15 05:33N 42°45' E 004°35'1211.7
2014-Aug-15 04:33N 42°37' E 004°24'1212.1
2014-Aug-15 03:33N 42°29' E 004°12'1211.7
2014-Aug-15 02:34N 42°20' E 004°02'1212.1
2014-Aug-15 01:33N 42°11' E 003°50'1212.0
2014-Aug-15 00:33N 42°03' E 003°39'1312.5
2014-Aug-14 23:33N 41°54' E 003°27'1313.5
2014-Aug-14 22:33N 41°46' E 003°13'1614.3
2014-Aug-14 21:27N 41°37' E 002°55'1213.8
2014-Aug-14 20:33N 41°30' E 002°41'1714.8
2014-Aug-14 19:25N 41°21' E 002°22'9 8.8
2014-Aug-14 18:23N 41°20' E 002°10'1 0.1
2014-Aug-14 10:22N 41°19' E 002°10'7 3.5
2014-Aug-14 08:22N 41°12' E 002°12'810.2
2014-Aug-14 07:33N 41°06' E 002°04'1413.8
2014-Aug-14 06:33N 40°54' E 001°58'1413.7
2014-Aug-14 05:33N 40°42' E 001°48'1414.0
2014-Aug-14 04:33N 40°29' E 001°40'1413.9
2014-Aug-14 03:33N 40°17' E 001°31'1413.7
2014-Aug-14 02:33N 40°05' E 001°23'1413.6
2014-Aug-14 01:33N 39°53' E 001°15'6213.9
2014-Aug-13 21:07N 38°58' E 000°39'814.2
2014-Aug-13 20:33N 38°51' E 000°34'5913.7
2014-Aug-13 16:13N 38°01' W 000°08'1013.9
2014-Aug-13 15:28N 37°52' W 000°15'1314.3
2014-Aug-13 14:33N 37°41' W 000°24'1414.0
2014-Aug-13 13:33N 37°31' W 000°35'1714.3
2014-Aug-13 12:20N 37°19' W 000°52'1013.3
2014-Aug-13 11:33N 37°12' W 001°01'2914.2
2014-Aug-13 09:32N 36°52' W 001°27'  
2014-Aug-10 17:25N 35°57' W 005°30'  
Track history (hours):
 
Tides and Currents Weather Stations Pressure Air Temp Water Temp Dewpoint Dewpoint Depression Visibility Wind Speed Wind Dir Waves Ship Positions

Bf Esperanza

Last reported at 2014-Aug-19 23:33 UTC. Time now 2014-Aug-22 17:42 UTC.
Position N 37°17' W 000°57'.

Length 135 m; draft 8.1 m.

Type: Cargo ship. MMSI: 304907000.

Date/timePositionNaut miles runAvg speedWind from/ knotsBaromVisibWave heightAir tempDewpointWater temp
2014-Aug-19 23:33N 37°17' W 000°57'1515.2
2014-Aug-19 22:32N 37°27' W 000°43'1514.7
2014-Aug-19 21:33N 37°38' W 000°30'1515.0
2014-Aug-19 20:31N 37°51' W 000°19'1414.3
2014-Aug-19 19:33N 38°03' W 000°10'78 3.3
2014-Aug-18 20:08N 39°14' E 000°28'1 0.5
2014-Aug-18 18:12N 39°13' E 000°28'33 3.4
2014-Aug-18 08:26N 39°22' W 000°13'7 7.2
2014-Aug-18 07:31N 39°27' W 000°19'0 0.0
2014-Aug-18 06:31N 39°27' W 000°19'0 0.0
2014-Aug-18 05:15N 39°27' W 000°19'0 0.0
2014-Aug-18 04:33N 39°27' W 000°19'0 0.0
2014-Aug-18 03:21N 39°27' W 000°19'0 0.0
2014-Aug-18 02:32N 39°27' W 000°19'0 0.0
2014-Aug-18 01:32N 39°27' W 000°19'0 0.0
2014-Aug-18 00:19N 39°27' W 000°19'58 6.6
2014-Aug-17 15:26N 40°05' E 000°39'1313.5
2014-Aug-17 14:30N 40°13' E 000°51'1313.2
2014-Aug-17 13:31N 40°22' E 001°04'1313.7
2014-Aug-17 12:33N 40°31' E 001°17'1414.5
2014-Aug-17 11:33N 40°40' E 001°31'1714.5
2014-Aug-17 10:25N 40°51' E 001°47'1514.4
2014-Aug-17 09:22N 41°01' E 002°03'1214.3
2014-Aug-17 08:33N 41°08' E 002°15'1414.3
2014-Aug-17 07:33N 41°17' E 002°29'1413.8
2014-Aug-17 06:33N 41°26' E 002°44'1413.6
2014-Aug-17 05:33N 41°35' E 002°58'1413.7
2014-Aug-17 04:33N 41°44' E 003°12'1413.9
2014-Aug-17 03:33N 41°55' E 003°23'1514.7
2014-Aug-17 02:33N 42°09' E 003°26'1414.0
2014-Aug-17 01:33N 42°23' E 003°29'1414.2
2014-Aug-17 00:33N 42°36' E 003°37'1414.3
2014-Aug-16 23:33N 42°49' E 003°44'1313.5
2014-Aug-16 22:34N 42°56' E 004°00'1413.8
2014-Aug-16 21:33N 42°60' E 004°18'1413.6
2014-Aug-16 20:33N 43°04' E 004°36'1414.2
2014-Aug-16 19:33N 43°08' E 004°55'1212.1
2014-Aug-16 18:33N 43°14' E 005°09'11 8.6
2014-Aug-16 17:18N 43°21' E 005°20'0 0.0
2014-Aug-16 11:22N 43°21' E 005°20'0 0.0
2014-Aug-16 09:30N 43°21' E 005°20'0 0.0
2014-Aug-16 06:23N 43°21' E 005°20'0 0.0
2014-Aug-16 05:04N 43°21' E 005°20'0 0.0
2014-Aug-15 23:04N 43°21' E 005°20'0 0.0
2014-Aug-15 22:13N 43°21' E 005°20'0 0.0
2014-Aug-15 20:03N 43°21' E 005°20'0 0.0
2014-Aug-15 19:13N 43°21' E 005°20'0 0.0
2014-Aug-15 17:32N 43°21' E 005°20'0 0.0
2014-Aug-15 12:30N 43°21' E 005°20'0 0.0
2014-Aug-15 09:30N 43°21' E 005°20'8 8.8
2014-Aug-15 08:33N 43°16' E 005°11'1313.5
2014-Aug-15 07:34N 43°04' E 005°02'1414.3
2014-Aug-15 06:33N 42°55' E 004°47'1312.9
2014-Aug-15 05:33N 42°45' E 004°35'1211.7
2014-Aug-15 04:33N 42°37' E 004°24'1212.1
2014-Aug-15 03:33N 42°29' E 004°12'1211.7
2014-Aug-15 02:34N 42°20' E 004°02'1212.1
2014-Aug-15 01:33N 42°11' E 003°50'1212.0
2014-Aug-15 00:33N 42°03' E 003°39'1312.5
2014-Aug-14 23:33N 41°54' E 003°27'1313.5
2014-Aug-14 22:33N 41°46' E 003°13'1614.3
2014-Aug-14 21:27N 41°37' E 002°55'1213.8
2014-Aug-14 20:33N 41°30' E 002°41'1714.8
2014-Aug-14 19:25N 41°21' E 002°22'9 8.8
2014-Aug-14 18:23N 41°20' E 002°10'1 0.1
2014-Aug-14 10:22N 41°19' E 002°10'7 3.5
2014-Aug-14 08:22N 41°12' E 002°12'810.2
2014-Aug-14 07:33N 41°06' E 002°04'1413.8
2014-Aug-14 06:33N 40°54' E 001°58'1413.7
2014-Aug-14 05:33N 40°42' E 001°48'1414.0
2014-Aug-14 04:33N 40°29' E 001°40'1413.9
2014-Aug-14 03:33N 40°17' E 001°31'1413.7
2014-Aug-14 02:33N 40°05' E 001°23'1413.6
2014-Aug-14 01:33N 39°53' E 001°15'6213.9
2014-Aug-13 21:07N 38°58' E 000°39'814.2
2014-Aug-13 20:33N 38°51' E 000°34'5913.7
2014-Aug-13 16:13N 38°01' W 000°08'1013.9
2014-Aug-13 15:28N 37°52' W 000°15'1314.3
2014-Aug-13 14:33N 37°41' W 000°24'1414.0
2014-Aug-13 13:33N 37°31' W 000°35'1714.3
2014-Aug-13 12:20N 37°19' W 000°52'1013.3
2014-Aug-13 11:33N 37°12' W 001°01'2914.2
2014-Aug-13 09:32N 36°52' W 001°27'  
2014-Aug-10 17:25N 35°57' W 005°30'  

Dump ship's entire track history